sensor_id;sensor_type;location;lat;lon;timestamp;P1;durP1;ratioP1;P2;durP2;ratioP2
16705;SDS011;8469;60.136;15.180;2022-09-20T00:01:06;0.37;;;0.37;;
16705;SDS011;8469;60.136;15.180;2022-09-20T00:03:34;1.00;;;0.50;;
16705;SDS011;8469;60.136;15.180;2022-09-20T00:06:02;3.30;;;0.62;;
16705;SDS011;8469;60.136;15.180;2022-09-20T00:08:30;0.98;;;0.30;;
16705;SDS011;8469;60.136;15.180;2022-09-20T00:10:59;0.30;;;0.30;;
16705;SDS011;8469;60.136;15.180;2022-09-20T00:13:27;2.00;;;0.50;;
16705;SDS011;8469;60.136;15.180;2022-09-20T00:15:55;1.10;;;0.30;;
16705;SDS011;8469;60.136;15.180;2022-09-20T00:18:22;1.20;;;0.60;;
16705;SDS011;8469;60.136;15.180;2022-09-20T00:20:50;3.45;;;0.50;;
16705;SDS011;8469;60.136;15.180;2022-09-20T00:23:17;2.10;;;0.55;;
16705;SDS011;8469;60.136;15.180;2022-09-20T00:25:52;1.50;;;0.50;;
16705;SDS011;8469;60.136;15.180;2022-09-20T00:28:13;0.30;;;0.30;;
16705;SDS011;8469;60.136;15.180;2022-09-20T00:30:41;0.82;;;0.33;;
16705;SDS011;8469;60.136;15.180;2022-09-20T00:33:08;2.22;;;0.50;;
16705;SDS011;8469;60.136;15.180;2022-09-20T00:35:35;0.57;;;0.40;;
16705;SDS011;8469;60.136;15.180;2022-09-20T00:38:03;1.37;;;0.45;;
16705;SDS011;8469;60.136;15.180;2022-09-20T00:40:30;0.40;;;0.40;;
16705;SDS011;8469;60.136;15.180;2022-09-20T00:42:57;1.42;;;0.50;;
16705;SDS011;8469;60.136;15.180;2022-09-20T00:45:25;0.62;;;0.40;;
16705;SDS011;8469;60.136;15.180;2022-09-20T00:48:03;1.40;;;0.50;;
16705;SDS011;8469;60.136;15.180;2022-09-20T00:50:52;0.37;;;0.37;;
16705;SDS011;8469;60.136;15.180;2022-09-20T00:53:15;0.70;;;0.30;;
16705;SDS011;8469;60.136;15.180;2022-09-20T00:55:44;0.65;;;0.42;;
16705;SDS011;8469;60.136;15.180;2022-09-20T00:58:11;1.80;;;0.40;;
16705;SDS011;8469;60.136;15.180;2022-09-20T01:00:39;1.30;;;0.50;;
16705;SDS011;8469;60.136;15.180;2022-09-20T01:03:07;0.20;;;0.20;;
16705;SDS011;8469;60.136;15.180;2022-09-20T01:05:36;1.05;;;0.37;;
16705;SDS011;8469;60.136;15.180;2022-09-20T01:08:04;1.35;;;0.37;;
16705;SDS011;8469;60.136;15.180;2022-09-20T01:10:31;0.30;;;0.30;;
16705;SDS011;8469;60.136;15.180;2022-09-20T01:12:59;0.40;;;0.35;;
16705;SDS011;8469;60.136;15.180;2022-09-20T01:15:26;1.77;;;0.40;;
16705;SDS011;8469;60.136;15.180;2022-09-20T01:17:56;1.40;;;0.40;;
16705;SDS011;8469;60.136;15.180;2022-09-20T01:20:25;0.60;;;0.50;;
16705;SDS011;8469;60.136;15.180;2022-09-20T01:28:10;0.60;;;0.40;;
16705;SDS011;8469;60.136;15.180;2022-09-20T01:35:52;1.50;;;0.50;;
16705;SDS011;8469;60.136;15.180;2022-09-20T01:41:00;1.22;;;0.20;;
16705;SDS011;8469;60.136;15.180;2022-09-20T01:43:34;0.20;;;0.20;;
16705;SDS011;8469;60.136;15.180;2022-09-20T01:46:06;1.50;;;0.35;;
16705;SDS011;8469;60.136;15.180;2022-09-20T01:48:35;0.40;;;0.35;;
16705;SDS011;8469;60.136;15.180;2022-09-20T01:53:47;1.60;;;0.70;;
16705;SDS011;8469;60.136;15.180;2022-09-20T01:59:06;0.40;;;0.20;;
16705;SDS011;8469;60.136;15.180;2022-09-20T02:14:30;1.43;;;0.30;;
16705;SDS011;8469;60.136;15.180;2022-09-20T02:17:06;1.20;;;0.40;;
16705;SDS011;8469;60.136;15.180;2022-09-20T02:19:33;0.45;;;0.40;;
16705;SDS011;8469;60.136;15.180;2022-09-20T02:22:07;2.55;;;0.50;;
16705;SDS011;8469;60.136;15.180;2022-09-20T02:27:05;0.33;;;0.20;;
16705;SDS011;8469;60.136;15.180;2022-09-20T02:35:15;1.50;;;0.30;;
16705;SDS011;8469;60.136;15.180;2022-09-20T02:37:48;1.60;;;0.50;;
16705;SDS011;8469;60.136;15.180;2022-09-20T02:40:19;0.40;;;0.23;;
16705;SDS011;8469;60.136;15.180;2022-09-20T02:42:46;1.60;;;0.40;;
16705;SDS011;8469;60.136;15.180;2022-09-20T02:45:21;0.82;;;0.35;;
16705;SDS011;8469;60.136;15.180;2022-09-20T02:47:45;2.33;;;0.53;;
16705;SDS011;8469;60.136;15.180;2022-09-20T02:50:28;0.55;;;0.30;;
16705;SDS011;8469;60.136;15.180;2022-09-20T03:00:36;3.25;;;0.50;;
16705;SDS011;8469;60.136;15.180;2022-09-20T03:10:52;0.60;;;0.30;;
16705;SDS011;8469;60.136;15.180;2022-09-20T03:18:24;0.60;;;0.30;;
16705;SDS011;8469;60.136;15.180;2022-09-20T03:21:10;0.95;;;0.40;;
16705;SDS011;8469;60.136;15.180;2022-09-20T03:23:22;1.60;;;0.45;;
16705;SDS011;8469;60.136;15.180;2022-09-20T03:25:54;2.40;;;0.50;;
16705;SDS011;8469;60.136;15.180;2022-09-20T03:28:22;2.30;;;0.47;;
16705;SDS011;8469;60.136;15.180;2022-09-20T03:30:52;0.95;;;0.40;;
16705;SDS011;8469;60.136;15.180;2022-09-20T03:43:39;0.30;;;0.30;;
16705;SDS011;8469;60.136;15.180;2022-09-20T03:56:47;1.35;;;0.40;;
16705;SDS011;8469;60.136;15.180;2022-09-20T03:59:18;1.90;;;0.50;;
16705;SDS011;8469;60.136;15.180;2022-09-20T04:04:34;1.40;;;0.37;;
16705;SDS011;8469;60.136;15.180;2022-09-20T04:07:04;2.25;;;0.40;;
16705;SDS011;8469;60.136;15.180;2022-09-20T04:12:03;1.00;;;0.50;;
16705;SDS011;8469;60.136;15.180;2022-09-20T04:14:36;1.95;;;0.40;;
16705;SDS011;8469;60.136;15.180;2022-09-20T04:22:02;1.00;;;0.40;;
16705;SDS011;8469;60.136;15.180;2022-09-20T04:27:26;1.72;;;0.50;;
16705;SDS011;8469;60.136;15.180;2022-09-20T04:32:43;1.25;;;0.40;;
16705;SDS011;8469;60.136;15.180;2022-09-20T04:38:15;0.40;;;0.40;;
16705;SDS011;8469;60.136;15.180;2022-09-20T04:48:39;1.00;;;0.62;;
16705;SDS011;8469;60.136;15.180;2022-09-20T04:54:36;2.30;;;0.42;;
16705;SDS011;8469;60.136;15.180;2022-09-20T04:56:19;2.70;;;0.55;;
16705;SDS011;8469;60.136;15.180;2022-09-20T04:58:48;0.50;;;0.50;;
16705;SDS011;8469;60.136;15.180;2022-09-20T05:01:34;3.40;;;0.60;;
16705;SDS011;8469;60.136;15.180;2022-09-20T05:09:40;1.95;;;0.42;;
16705;SDS011;8469;60.136;15.180;2022-09-20T05:12:18;1.30;;;0.40;;
16705;SDS011;8469;60.136;15.180;2022-09-20T05:18:05;1.00;;;0.50;;
16705;SDS011;8469;60.136;15.180;2022-09-20T05:31:01;2.27;;;0.60;;
16705;SDS011;8469;60.136;15.180;2022-09-20T05:33:36;3.00;;;0.60;;
16705;SDS011;8469;60.136;15.180;2022-09-20T05:41:26;0.88;;;0.40;;
16705;SDS011;8469;60.136;15.180;2022-09-20T05:46:25;0.50;;;0.40;;
16705;SDS011;8469;60.136;15.180;2022-09-20T05:51:46;0.50;;;0.40;;
16705;SDS011;8469;60.136;15.180;2022-09-20T05:54:20;1.50;;;0.50;;
16705;SDS011;8469;60.136;15.180;2022-09-20T05:59:19;0.30;;;0.30;;
16705;SDS011;8469;60.136;15.180;2022-09-20T06:07:30;5.45;;;0.55;;
16705;SDS011;8469;60.136;15.180;2022-09-20T06:12:05;0.93;;;0.60;;
16705;SDS011;8469;60.136;15.180;2022-09-20T06:14:50;1.25;;;0.50;;
16705;SDS011;8469;60.136;15.180;2022-09-20T06:17:29;2.00;;;0.45;;
16705;SDS011;8469;60.136;15.180;2022-09-20T06:20:01;0.57;;;0.40;;
16705;SDS011;8469;60.136;15.180;2022-09-20T06:22:30;0.70;;;0.50;;
16705;SDS011;8469;60.136;15.180;2022-09-20T06:27:42;0.40;;;0.40;;
16705;SDS011;8469;60.136;15.180;2022-09-20T06:30:14;0.85;;;0.40;;
16705;SDS011;8469;60.136;15.180;2022-09-20T06:32:51;3.45;;;0.47;;
16705;SDS011;8469;60.136;15.180;2022-09-20T06:35:06;2.08;;;0.50;;
16705;SDS011;8469;60.136;15.180;2022-09-20T06:37:42;4.05;;;0.80;;
16705;SDS011;8469;60.136;15.180;2022-09-20T06:40:30;1.17;;;0.40;;
16705;SDS011;8469;60.136;15.180;2022-09-20T06:43:14;1.00;;;0.55;;
16705;SDS011;8469;60.136;15.180;2022-09-20T06:45:41;2.30;;;0.40;;
16705;SDS011;8469;60.136;15.180;2022-09-20T06:48:09;0.93;;;0.30;;
16705;SDS011;8469;60.136;15.180;2022-09-20T06:50:38;2.67;;;0.50;;
16705;SDS011;8469;60.136;15.180;2022-09-20T06:53:07;2.22;;;0.62;;
16705;SDS011;8469;60.136;15.180;2022-09-20T06:55:36;0.93;;;0.42;;
16705;SDS011;8469;60.136;15.180;2022-09-20T06:58:05;0.57;;;0.40;;
16705;SDS011;8469;60.136;15.180;2022-09-20T09:06:09;0.30;;;0.30;;
16705;SDS011;8469;60.136;15.180;2022-09-20T09:08:34;0.30;;;0.20;;
16705;SDS011;8469;60.136;15.180;2022-09-20T09:11:07;0.70;;;0.40;;
16705;SDS011;8469;60.136;15.180;2022-09-20T09:13:49;0.23;;;0.23;;
16705;SDS011;8469;60.136;15.180;2022-09-20T09:16:16;0.70;;;0.30;;
16705;SDS011;8469;60.136;15.180;2022-09-20T09:18:45;1.30;;;0.27;;
16705;SDS011;8469;60.136;15.180;2022-09-20T09:21:18;0.30;;;0.30;;
16705;SDS011;8469;60.136;15.180;2022-09-20T09:24:19;1.80;;;0.90;;
16705;SDS011;8469;60.136;15.180;2022-09-20T09:26:23;0.45;;;0.45;;
16705;SDS011;8469;60.136;15.180;2022-09-20T09:29:06;0.50;;;0.42;;
16705;SDS011;8469;60.136;15.180;2022-09-20T09:31:34;0.50;;;0.50;;
16705;SDS011;8469;60.136;15.180;2022-09-20T09:34:03;0.20;;;0.20;;
16705;SDS011;8469;60.136;15.180;2022-09-20T09:36:30;0.30;;;0.30;;
16705;SDS011;8469;60.136;15.180;2022-09-20T09:41:43;0.37;;;0.37;;
16705;SDS011;8469;60.136;15.180;2022-09-20T09:44:28;0.40;;;0.40;;
16705;SDS011;8469;60.136;15.180;2022-09-20T09:46:55;0.40;;;0.40;;
16705;SDS011;8469;60.136;15.180;2022-09-20T09:49:24;0.30;;;0.30;;
16705;SDS011;8469;60.136;15.180;2022-09-20T09:54:39;0.47;;;0.40;;
16705;SDS011;8469;60.136;15.180;2022-09-20T09:57:17;0.40;;;0.40;;
16705;SDS011;8469;60.136;15.180;2022-09-20T10:04:56;2.30;;;0.40;;
16705;SDS011;8469;60.136;15.180;2022-09-20T10:07:39;1.20;;;0.40;;
16705;SDS011;8469;60.136;15.180;2022-09-20T10:12:45;0.30;;;0.30;;
16705;SDS011;8469;60.136;15.180;2022-09-20T10:20:25;0.20;;;0.20;;
16705;SDS011;8469;60.136;15.180;2022-09-20T10:22:57;2.70;;;0.30;;
16705;SDS011;8469;60.136;15.180;2022-09-20T10:25:39;0.70;;;0.50;;
16705;SDS011;8469;60.136;15.180;2022-09-20T10:33:21;0.50;;;0.50;;
16705;SDS011;8469;60.136;15.180;2022-09-20T10:36:08;0.50;;;0.50;;
16705;SDS011;8469;60.136;15.180;2022-09-20T10:38:37;0.40;;;0.40;;
16705;SDS011;8469;60.136;15.180;2022-09-20T10:44:09;0.27;;;0.27;;
16705;SDS011;8469;60.136;15.180;2022-09-20T10:46:47;6.33;;;0.40;;
16705;SDS011;8469;60.136;15.180;2022-09-20T10:49:35;2.60;;;0.30;;
16705;SDS011;8469;60.136;15.180;2022-09-20T10:59:51;0.20;;;0.20;;
16705;SDS011;8469;60.136;15.180;2022-09-20T11:09:56;0.40;;;0.40;;
16705;SDS011;8469;60.136;15.180;2022-09-20T11:12:28;0.35;;;0.30;;
16705;SDS011;8469;60.136;15.180;2022-09-20T11:14:58;0.20;;;0.20;;
16705;SDS011;8469;60.136;15.180;2022-09-20T11:20:21;0.70;;;0.40;;
16705;SDS011;8469;60.136;15.180;2022-09-20T11:22:49;1.40;;;0.40;;
16705;SDS011;8469;60.136;15.180;2022-09-20T11:25:19;0.30;;;0.30;;
16705;SDS011;8469;60.136;15.180;2022-09-20T11:27:54;0.30;;;0.20;;
16705;SDS011;8469;60.136;15.180;2022-09-20T11:30:22;0.28;;;0.28;;
16705;SDS011;8469;60.136;15.180;2022-09-20T11:35:24;1.50;;;0.30;;
16705;SDS011;8469;60.136;15.180;2022-09-20T11:37:52;0.57;;;0.20;;
16705;SDS011;8469;60.136;15.180;2022-09-20T11:40:25;0.30;;;0.25;;
16705;SDS011;8469;60.136;15.180;2022-09-20T11:42:54;3.40;;;0.50;;
16705;SDS011;8469;60.136;15.180;2022-09-20T11:45:21;1.20;;;0.40;;
16705;SDS011;8469;60.136;15.180;2022-09-20T11:47:53;0.30;;;0.25;;
16705;SDS011;8469;60.136;15.180;2022-09-20T11:50:40;0.40;;;0.40;;
16705;SDS011;8469;60.136;15.180;2022-09-20T11:58:19;3.60;;;0.28;;
16705;SDS011;8469;60.136;15.180;2022-09-20T12:00:49;0.20;;;0.20;;
16705;SDS011;8469;60.136;15.180;2022-09-20T12:03:38;0.25;;;0.25;;
16705;SDS011;8469;60.136;15.180;2022-09-20T12:05:46;0.30;;;0.30;;
16705;SDS011;8469;60.136;15.180;2022-09-20T12:08:21;0.20;;;0.20;;
16705;SDS011;8469;60.136;15.180;2022-09-20T12:10:53;0.70;;;0.30;;
16705;SDS011;8469;60.136;15.180;2022-09-20T12:13:21;1.15;;;0.30;;
16705;SDS011;8469;60.136;15.180;2022-09-20T12:15:55;0.30;;;0.30;;
16705;SDS011;8469;60.136;15.180;2022-09-20T12:18:27;1.10;;;0.40;;
16705;SDS011;8469;60.136;15.180;2022-09-20T12:28:43;0.33;;;0.33;;
16705;SDS011;8469;60.136;15.180;2022-09-20T12:33:58;0.30;;;0.30;;
16705;SDS011;8469;60.136;15.180;2022-09-20T12:36:32;0.30;;;0.30;;
16705;SDS011;8469;60.136;15.180;2022-09-20T12:39:02;0.30;;;0.20;;
16705;SDS011;8469;60.136;15.180;2022-09-20T12:42:05;0.45;;;;;
16705;SDS011;8469;60.136;15.180;2022-09-20T12:44:17;0.25;;;0.25;;
16705;SDS011;8469;60.136;15.180;2022-09-20T12:46:39;0.50;;;0.30;;
16705;SDS011;8469;60.136;15.180;2022-09-20T12:49:17;0.23;;;0.23;;
16705;SDS011;8469;60.136;15.180;2022-09-20T12:51:39;0.23;;;0.23;;
16705;SDS011;8469;60.136;15.180;2022-09-20T12:54:24;0.80;;;0.30;;
16705;SDS011;8469;60.136;15.180;2022-09-20T12:56:52;2.05;;;0.50;;
16705;SDS011;8469;60.136;15.180;2022-09-20T12:59:24;0.20;;;0.20;;
16705;SDS011;8469;60.136;15.180;2022-09-20T13:01:48;0.23;;;0.23;;
16705;SDS011;8469;60.136;15.180;2022-09-20T13:09:46;0.20;;;0.20;;
16705;SDS011;8469;60.136;15.180;2022-09-20T13:12:14;0.20;;;0.20;;
16705;SDS011;8469;60.136;15.180;2022-09-20T13:14:42;0.30;;;0.30;;
16705;SDS011;8469;60.136;15.180;2022-09-20T13:19:42;0.47;;;0.40;;
16705;SDS011;8469;60.136;15.180;2022-09-20T13:22:28;1.85;;;0.30;;
16705;SDS011;8469;60.136;15.180;2022-09-20T13:24:57;0.30;;;0.30;;
16705;SDS011;8469;60.136;15.180;2022-09-20T13:27:32;1.40;;;0.20;;
16705;SDS011;8469;60.136;15.180;2022-09-20T13:30:19;0.45;;;0.45;;
16705;SDS011;8469;60.136;15.180;2022-09-20T13:32:47;0.40;;;0.23;;
16705;SDS011;8469;60.136;15.180;2022-09-20T13:35:20;0.50;;;0.30;;
16705;SDS011;8469;60.136;15.180;2022-09-20T13:37:50;0.70;;;0.40;;
16705;SDS011;8469;60.136;15.180;2022-09-20T13:40:19;3.42;;;0.30;;
16705;SDS011;8469;60.136;15.180;2022-09-20T13:42:47;0.30;;;0.30;;
16705;SDS011;8469;60.136;15.180;2022-09-20T13:45:18;0.28;;;0.28;;
16705;SDS011;8469;60.136;15.180;2022-09-20T13:47:50;0.23;;;0.23;;
16705;SDS011;8469;60.136;15.180;2022-09-20T13:50:21;0.30;;;0.30;;
16705;SDS011;8469;60.136;15.180;2022-09-20T13:52:54;0.23;;;0.23;;
16705;SDS011;8469;60.136;15.180;2022-09-20T13:57:55;0.40;;;0.25;;
16705;SDS011;8469;60.136;15.180;2022-09-20T14:00:23;0.20;;;0.20;;
16705;SDS011;8469;60.136;15.180;2022-09-20T14:02:51;0.28;;;0.28;;
16705;SDS011;8469;60.136;15.180;2022-09-20T14:05:22;0.40;;;0.40;;
16705;SDS011;8469;60.136;15.180;2022-09-20T14:07:50;0.85;;;0.30;;
16705;SDS011;8469;60.136;15.180;2022-09-20T14:10:25;0.37;;;0.37;;
16705;SDS011;8469;60.136;15.180;2022-09-20T14:12:52;0.40;;;0.40;;
16705;SDS011;8469;60.136;15.180;2022-09-20T14:15:20;1.40;;;0.30;;
16705;SDS011;8469;60.136;15.180;2022-09-20T14:17:48;0.68;;;0.30;;
16705;SDS011;8469;60.136;15.180;2022-09-20T14:20:17;1.75;;;0.37;;
16705;SDS011;8469;60.136;15.180;2022-09-20T14:22:45;0.93;;;0.28;;
16705;SDS011;8469;60.136;15.180;2022-09-20T14:27:41;1.00;;;0.20;;
16705;SDS011;8469;60.136;15.180;2022-09-20T14:30:30;1.10;;;0.17;;
16705;SDS011;8469;60.136;15.180;2022-09-20T14:32:54;0.60;;;0.30;;
16705;SDS011;8469;60.136;15.180;2022-09-20T14:35:23;1.30;;;0.17;;
16705;SDS011;8469;60.136;15.180;2022-09-20T14:37:55;0.20;;;0.20;;
16705;SDS011;8469;60.136;15.180;2022-09-20T14:40:39;0.28;;;0.20;;
16705;SDS011;8469;60.136;15.180;2022-09-20T14:43:01;1.10;;;0.50;;
16705;SDS011;8469;60.136;15.180;2022-09-20T14:45:30;0.25;;;0.25;;
16705;SDS011;8469;60.136;15.180;2022-09-20T14:50:29;0.62;;;0.30;;
16705;SDS011;8469;60.136;15.180;2022-09-20T14:52:58;0.40;;;0.30;;
16705;SDS011;8469;60.136;15.180;2022-09-20T14:55:26;0.40;;;0.40;;
16705;SDS011;8469;60.136;15.180;2022-09-20T14:58:01;1.60;;;0.30;;
16705;SDS011;8469;60.136;15.180;2022-09-20T15:00:25;0.40;;;0.23;;
16705;SDS011;8469;60.136;15.180;2022-09-20T15:02:52;0.28;;;0.28;;
16705;SDS011;8469;60.136;15.180;2022-09-20T15:05:21;0.40;;;0.40;;
16705;SDS011;8469;60.136;15.180;2022-09-20T15:07:54;0.30;;;0.30;;
16705;SDS011;8469;60.136;15.180;2022-09-20T15:10:22;0.20;;;0.20;;
16705;SDS011;8469;60.136;15.180;2022-09-20T15:12:50;0.20;;;0.20;;
16705;SDS011;8469;60.136;15.180;2022-09-20T15:15:18;0.20;;;0.20;;
16705;SDS011;8469;60.136;15.180;2022-09-20T15:17:45;0.33;;;0.33;;
16705;SDS011;8469;60.136;15.180;2022-09-20T15:20:18;0.23;;;0.23;;
16705;SDS011;8469;60.136;15.180;2022-09-20T15:22:42;0.20;;;0.20;;
16705;SDS011;8469;60.136;15.180;2022-09-20T15:25:12;0.20;;;0.20;;
16705;SDS011;8469;60.136;15.180;2022-09-20T15:27:41;1.50;;;0.30;;
16705;SDS011;8469;60.136;15.180;2022-09-20T15:30:10;0.28;;;0.28;;
16705;SDS011;8469;60.136;15.180;2022-09-20T15:32:38;0.55;;;0.25;;
16705;SDS011;8469;60.136;15.180;2022-09-20T15:35:06;0.42;;;0.33;;
16705;SDS011;8469;60.136;15.180;2022-09-20T15:37:34;0.57;;;0.37;;
16705;SDS011;8469;60.136;15.180;2022-09-20T15:40:01;1.00;;;0.30;;
16705;SDS011;8469;60.136;15.180;2022-09-20T15:42:29;1.00;;;0.70;;
16705;SDS011;8469;60.136;15.180;2022-09-20T15:44:56;2.75;;;0.47;;
16705;SDS011;8469;60.136;15.180;2022-09-20T15:47:24;0.40;;;0.40;;
16705;SDS011;8469;60.136;15.180;2022-09-20T15:49:53;0.60;;;0.50;;
16705;SDS011;8469;60.136;15.180;2022-09-20T15:52:20;0.40;;;0.40;;
16705;SDS011;8469;60.136;15.180;2022-09-20T15:54:50;0.40;;;0.40;;
16705;SDS011;8469;60.136;15.180;2022-09-20T15:57:17;0.30;;;0.30;;
16705;SDS011;8469;60.136;15.180;2022-09-20T15:59:46;0.30;;;0.30;;
16705;SDS011;8469;60.136;15.180;2022-09-20T16:02:15;0.30;;;0.30;;
16705;SDS011;8469;60.136;15.180;2022-09-20T16:04:42;2.05;;;0.50;;
16705;SDS011;8469;60.136;15.180;2022-09-20T16:07:10;0.30;;;0.30;;
16705;SDS011;8469;60.136;15.180;2022-09-20T16:09:37;0.63;;;0.30;;
16705;SDS011;8469;60.136;15.180;2022-09-20T16:12:04;0.65;;;0.50;;
16705;SDS011;8469;60.136;15.180;2022-09-20T16:14:32;1.80;;;0.30;;
16705;SDS011;8469;60.136;15.180;2022-09-20T16:17:00;0.60;;;0.50;;
16705;SDS011;8469;60.136;15.180;2022-09-20T16:19:28;0.30;;;0.30;;
16705;SDS011;8469;60.136;15.180;2022-09-20T16:21:55;1.65;;;0.50;;
16705;SDS011;8469;60.136;15.180;2022-09-20T16:24:27;0.35;;;0.20;;
16705;SDS011;8469;60.136;15.180;2022-09-20T16:26:55;1.55;;;1.17;;
16705;SDS011;8469;60.136;15.180;2022-09-20T16:29:22;1.50;;;0.80;;
16705;SDS011;8469;60.136;15.180;2022-09-20T16:31:51;0.33;;;0.33;;
16705;SDS011;8469;60.136;15.180;2022-09-20T16:34:25;0.65;;;0.60;;
16705;SDS011;8469;60.136;15.180;2022-09-20T16:36:56;0.55;;;0.50;;
16705;SDS011;8469;60.136;15.180;2022-09-20T16:39:26;1.60;;;0.50;;
16705;SDS011;8469;60.136;15.180;2022-09-20T16:41:54;13.50;;;0.53;;
16705;SDS011;8469;60.136;15.180;2022-09-20T17:06:04;0.55;;;0.55;;
16705;SDS011;8469;60.136;15.180;2022-09-20T17:08:32;3.47;;;1.65;;
16705;SDS011;8469;60.136;15.180;2022-09-20T17:11:07;7.47;;;2.80;;
16705;SDS011;8469;60.136;15.180;2022-09-20T17:13:36;2.33;;;1.20;;
16705;SDS011;8469;60.136;15.180;2022-09-20T17:16:06;1.45;;;0.75;;
16705;SDS011;8469;60.136;15.180;2022-09-20T17:18:34;1.12;;;0.53;;
16705;SDS011;8469;60.136;15.180;2022-09-20T17:21:03;2.33;;;0.70;;
16705;SDS011;8469;60.136;15.180;2022-09-20T17:23:31;2.40;;;1.20;;
16705;SDS011;8469;60.136;15.180;2022-09-20T17:26:03;1.00;;;0.90;;
16705;SDS011;8469;60.136;15.180;2022-09-20T17:28:34;0.67;;;0.60;;
16705;SDS011;8469;60.136;15.180;2022-09-20T17:31:03;3.30;;;0.47;;
16705;SDS011;8469;60.136;15.180;2022-09-20T17:33:35;0.50;;;0.50;;
16705;SDS011;8469;60.136;15.180;2022-09-20T17:35:59;1.80;;;0.53;;
16705;SDS011;8469;60.136;15.180;2022-09-20T17:38:28;0.30;;;0.30;;
16705;SDS011;8469;60.136;15.180;2022-09-20T17:40:59;0.70;;;0.70;;
16705;SDS011;8469;60.136;15.180;2022-09-20T17:43:27;1.20;;;0.50;;
16705;SDS011;8469;60.136;15.180;2022-09-20T17:46:05;7.15;;;2.98;;
16705;SDS011;8469;60.136;15.180;2022-09-20T17:48:33;12.33;;;5.12;;
16705;SDS011;8469;60.136;15.180;2022-09-20T17:51:00;16.07;;;6.00;;
16705;SDS011;8469;60.136;15.180;2022-09-20T17:53:29;11.78;;;5.05;;
16705;SDS011;8469;60.136;15.180;2022-09-20T17:55:57;11.00;;;4.70;;
16705;SDS011;8469;60.136;15.180;2022-09-20T17:58:25;9.23;;;4.45;;
16705;SDS011;8469;60.136;15.180;2022-09-20T18:00:52;13.78;;;5.65;;
16705;SDS011;8469;60.136;15.180;2022-09-20T18:03:23;10.43;;;4.50;;
16705;SDS011;8469;60.136;15.180;2022-09-20T18:05:51;8.70;;;4.00;;
16705;SDS011;8469;60.136;15.180;2022-09-20T18:08:18;5.78;;;3.02;;
16705;SDS011;8469;60.136;15.180;2022-09-20T18:10:57;7.05;;;3.02;;
16705;SDS011;8469;60.136;15.180;2022-09-20T18:13:25;4.50;;;3.02;;
16705;SDS011;8469;60.136;15.180;2022-09-20T18:15:52;6.37;;;2.83;;
16705;SDS011;8469;60.136;15.180;2022-09-20T18:18:20;7.33;;;2.65;;
16705;SDS011;8469;60.136;15.180;2022-09-20T18:20:47;4.45;;;2.30;;
16705;SDS011;8469;60.136;15.180;2022-09-20T18:23:14;4.55;;;2.67;;
16705;SDS011;8469;60.136;15.180;2022-09-20T18:25:42;4.40;;;2.60;;
16705;SDS011;8469;60.136;15.180;2022-09-20T18:28:27;3.98;;;2.50;;
16705;SDS011;8469;60.136;15.180;2022-09-20T18:30:59;3.98;;;2.50;;
16705;SDS011;8469;60.136;15.180;2022-09-20T18:33:28;3.70;;;1.98;;
16705;SDS011;8469;60.136;15.180;2022-09-20T18:36:02;3.87;;;1.93;;
16705;SDS011;8469;60.136;15.180;2022-09-20T18:38:30;1.70;;;1.60;;
16705;SDS011;8469;60.136;15.180;2022-09-20T18:40:59;4.55;;;1.85;;
16705;SDS011;8469;60.136;15.180;2022-09-20T18:43:31;2.60;;;1.62;;
16705;SDS011;8469;60.136;15.180;2022-09-20T18:45:56;1.77;;;1.60;;
16705;SDS011;8469;60.136;15.180;2022-09-20T18:48:24;2.08;;;1.85;;
16705;SDS011;8469;60.136;15.180;2022-09-20T18:51:01;2.12;;;1.47;;
16705;SDS011;8469;60.136;15.180;2022-09-20T18:53:24;2.17;;;1.57;;
16705;SDS011;8469;60.136;15.180;2022-09-20T18:55:52;7.03;;;2.02;;
16705;SDS011;8469;60.136;15.180;2022-09-20T18:58:20;1.82;;;1.60;;
16705;SDS011;8469;60.136;15.180;2022-09-20T19:00:51;2.02;;;1.52;;
16705;SDS011;8469;60.136;15.180;2022-09-20T19:03:18;2.67;;;1.67;;
16705;SDS011;8469;60.136;15.180;2022-09-20T19:05:50;6.03;;;2.13;;
16705;SDS011;8469;60.136;15.180;2022-09-20T19:08:30;4.47;;;1.60;;
16705;SDS011;8469;60.136;15.180;2022-09-20T19:11:00;1.90;;;1.70;;
16705;SDS011;8469;60.136;15.180;2022-09-20T19:13:31;3.20;;;1.70;;
16705;SDS011;8469;60.136;15.180;2022-09-20T19:21:23;4.65;;;2.12;;
16705;SDS011;8469;60.136;15.180;2022-09-20T19:24:00;2.02;;;1.80;;
16705;SDS011;8469;60.136;15.180;2022-09-20T19:26:28;4.92;;;1.90;;
16705;SDS011;8469;60.136;15.180;2022-09-20T19:28:56;4.45;;;2.00;;
16705;SDS011;8469;60.136;15.180;2022-09-20T19:31:31;2.58;;;2.10;;
16705;SDS011;8469;60.136;15.180;2022-09-20T19:33:55;3.85;;;1.67;;
16705;SDS011;8469;60.136;15.180;2022-09-20T19:36:23;4.17;;;1.90;;
16705;SDS011;8469;60.136;15.180;2022-09-20T19:38:55;4.83;;;2.03;;
16705;SDS011;8469;60.136;15.180;2022-09-20T19:44:12;1.60;;;1.50;;
16705;SDS011;8469;60.136;15.180;2022-09-20T19:49:12;4.60;;;1.50;;
16705;SDS011;8469;60.136;15.180;2022-09-20T19:51:40;1.25;;;1.10;;
16705;SDS011;8469;60.136;15.180;2022-09-20T19:54:09;1.40;;;1.30;;
16705;SDS011;8469;60.136;15.180;2022-09-20T19:59:23;2.47;;;1.70;;
16705;SDS011;8469;60.136;15.180;2022-09-20T20:01:47;4.67;;;2.20;;
16705;SDS011;8469;60.136;15.180;2022-09-20T20:04:14;4.58;;;1.80;;
16705;SDS011;8469;60.136;15.180;2022-09-20T20:09:31;5.15;;;2.05;;
16705;SDS011;8469;60.136;15.180;2022-09-20T20:12:07;3.08;;;2.02;;
16705;SDS011;8469;60.136;15.180;2022-09-20T20:19:53;2.10;;;1.90;;
16705;SDS011;8469;60.136;15.180;2022-09-20T20:25:27;3.55;;;1.98;;
16705;SDS011;8469;60.136;15.180;2022-09-20T20:27:38;3.93;;;2.40;;
16705;SDS011;8469;60.136;15.180;2022-09-20T20:30:06;3.15;;;2.30;;
16705;SDS011;8469;60.136;15.180;2022-09-20T20:32:34;7.12;;;4.35;;
16705;SDS011;8469;60.136;15.180;2022-09-20T20:35:01;6.23;;;4.03;;
16705;SDS011;8469;60.136;15.180;2022-09-20T20:37:28;2.87;;;2.58;;
16705;SDS011;8469;60.136;15.180;2022-09-20T20:39:57;3.20;;;2.52;;
16705;SDS011;8469;60.136;15.180;2022-09-20T20:42:24;5.60;;;1.75;;
16705;SDS011;8469;60.136;15.180;2022-09-20T20:44:52;2.95;;;1.40;;
16705;SDS011;8469;60.136;15.180;2022-09-20T20:47:19;5.15;;;1.40;;
16705;SDS011;8469;60.136;15.180;2022-09-20T20:49:47;2.85;;;1.25;;
16705;SDS011;8469;60.136;15.180;2022-09-20T20:52:14;1.70;;;1.13;;
16705;SDS011;8469;60.136;15.180;2022-09-20T20:54:41;1.40;;;1.30;;
16705;SDS011;8469;60.136;15.180;2022-09-20T20:57:09;4.00;;;1.40;;
16705;SDS011;8469;60.136;15.180;2022-09-20T20:59:36;2.40;;;1.30;;
16705;SDS011;8469;60.136;15.180;2022-09-20T21:02:03;1.30;;;1.12;;
16705;SDS011;8469;60.136;15.180;2022-09-20T21:04:30;3.30;;;1.17;;
16705;SDS011;8469;60.136;15.180;2022-09-20T21:06:58;1.10;;;1.00;;
16705;SDS011;8469;60.136;15.180;2022-09-20T21:09:27;5.85;;;1.15;;
16705;SDS011;8469;60.136;15.180;2022-09-20T21:11:54;2.77;;;1.35;;
16705;SDS011;8469;60.136;15.180;2022-09-20T21:14:21;3.60;;;1.45;;
16705;SDS011;8469;60.136;15.180;2022-09-20T21:16:50;2.65;;;1.40;;
16705;SDS011;8469;60.136;15.180;2022-09-20T21:19:17;2.42;;;1.30;;
16705;SDS011;8469;60.136;15.180;2022-09-20T21:21:45;1.37;;;1.10;;
16705;SDS011;8469;60.136;15.180;2022-09-20T21:24:16;1.00;;;1.00;;
16705;SDS011;8469;60.136;15.180;2022-09-20T21:26:45;1.67;;;1.30;;
16705;SDS011;8469;60.136;15.180;2022-09-20T21:29:27;4.24;;;1.10;;
16705;SDS011;8469;60.136;15.180;2022-09-20T21:31:54;4.27;;;1.30;;
16705;SDS011;8469;60.136;15.180;2022-09-20T21:34:21;2.83;;;1.30;;
16705;SDS011;8469;60.136;15.180;2022-09-20T21:36:49;1.52;;;1.27;;
16705;SDS011;8469;60.136;15.180;2022-09-20T21:39:16;2.58;;;1.10;;
16705;SDS011;8469;60.136;15.180;2022-09-20T21:41:44;2.12;;;1.10;;
16705;SDS011;8469;60.136;15.180;2022-09-20T21:44:12;4.53;;;1.32;;
16705;SDS011;8469;60.136;15.180;2022-09-20T21:46:40;1.10;;;1.10;;
16705;SDS011;8469;60.136;15.180;2022-09-20T21:49:09;1.30;;;1.10;;